sensor_id;sensor_type;location;lat;lon;timestamp;P1;durP1;ratioP1;P2;durP2;ratioP2
22318;SDS011;11327;52.334;9.506;2023-02-18T00:02:06;9.20;;;1.65;;
22318;SDS011;11327;52.334;9.506;2023-02-18T00:05:27;5.95;;;1.10;;
22318;SDS011;11327;52.334;9.506;2023-02-18T00:08:49;5.37;;;1.30;;
22318;SDS011;11327;52.334;9.506;2023-02-18T00:12:10;6.05;;;0.90;;
22318;SDS011;11327;52.334;9.506;2023-02-18T00:15:33;10.93;;;1.55;;
22318;SDS011;11327;52.334;9.506;2023-02-18T00:18:58;5.55;;;1.20;;
22318;SDS011;11327;52.334;9.506;2023-02-18T00:22:20;6.03;;;1.15;;
22318;SDS011;11327;52.334;9.506;2023-02-18T00:25:41;9.48;;;1.20;;
22318;SDS011;11327;52.334;9.506;2023-02-18T00:29:02;7.53;;;1.12;;
22318;SDS011;11327;52.334;9.506;2023-02-18T00:32:23;5.65;;;1.05;;
22318;SDS011;11327;52.334;9.506;2023-02-18T00:35:43;5.95;;;1.12;;
22318;SDS011;11327;52.334;9.506;2023-02-18T00:39:08;8.08;;;1.20;;
22318;SDS011;11327;52.334;9.506;2023-02-18T00:42:28;6.12;;;1.05;;
22318;SDS011;11327;52.334;9.506;2023-02-18T00:45:48;5.35;;;1.05;;
22318;SDS011;11327;52.334;9.506;2023-02-18T00:49:09;7.97;;;1.00;;
22318;SDS011;11327;52.334;9.506;2023-02-18T00:52:30;8.85;;;1.20;;
22318;SDS011;11327;52.334;9.506;2023-02-18T00:55:51;4.62;;;1.10;;
22318;SDS011;11327;52.334;9.506;2023-02-18T00:59:11;5.80;;;0.80;;
22318;SDS011;11327;52.334;9.506;2023-02-18T01:02:32;5.45;;;1.07;;
22318;SDS011;11327;52.334;9.506;2023-02-18T01:05:53;5.58;;;1.00;;
22318;SDS011;11327;52.334;9.506;2023-02-18T01:09:14;4.05;;;1.07;;
22318;SDS011;11327;52.334;9.506;2023-02-18T01:12:35;6.30;;;1.10;;
22318;SDS011;11327;52.334;9.506;2023-02-18T01:15:56;6.10;;;1.12;;
22318;SDS011;11327;52.334;9.506;2023-02-18T01:19:16;7.70;;;1.30;;
22318;SDS011;11327;52.334;9.506;2023-02-18T01:22:37;5.37;;;1.15;;
22318;SDS011;11327;52.334;9.506;2023-02-18T01:25:58;7.00;;;1.40;;
22318;SDS011;11327;52.334;9.506;2023-02-18T01:29:19;5.50;;;1.05;;
22318;SDS011;11327;52.334;9.506;2023-02-18T01:32:39;6.55;;;1.15;;
22318;SDS011;11327;52.334;9.506;2023-02-18T01:36:00;6.35;;;1.10;;
22318;SDS011;11327;52.334;9.506;2023-02-18T01:39:21;11.15;;;1.22;;
22318;SDS011;11327;52.334;9.506;2023-02-18T01:42:42;7.72;;;1.30;;
22318;SDS011;11327;52.334;9.506;2023-02-18T01:46:17;4.70;;;1.17;;
22318;SDS011;11327;52.334;9.506;2023-02-18T01:49:39;5.33;;;1.10;;
22318;SDS011;11327;52.334;9.506;2023-02-18T01:53:00;4.35;;;1.15;;
22318;SDS011;11327;52.334;9.506;2023-02-18T01:56:29;8.68;;;1.62;;
22318;SDS011;11327;52.334;9.506;2023-02-18T01:59:55;7.22;;;1.62;;
22318;SDS011;11327;52.334;9.506;2023-02-18T02:03:22;5.67;;;1.40;;
22318;SDS011;11327;52.334;9.506;2023-02-18T02:06:43;8.65;;;1.30;;
22318;SDS011;11327;52.334;9.506;2023-02-18T02:10:04;9.10;;;1.35;;
22318;SDS011;11327;52.334;9.506;2023-02-18T02:17:02;10.30;;;1.77;;
22318;SDS011;11327;52.334;9.506;2023-02-18T02:20:42;6.78;;;1.50;;
22318;SDS011;11327;52.334;9.506;2023-02-18T02:31:22;8.90;;;2.33;;
22318;SDS011;11327;52.334;9.506;2023-02-18T02:38:39;6.20;;;1.87;;
22318;SDS011;11327;52.334;9.506;2023-02-18T02:46:10;10.98;;;2.92;;
22318;SDS011;11327;52.334;9.506;2023-02-18T02:53:20;11.85;;;3.52;;
22318;SDS011;11327;52.334;9.506;2023-02-18T02:56:45;11.50;;;4.58;;
22318;SDS011;11327;52.334;9.506;2023-02-18T03:00:07;13.83;;;5.12;;
22318;SDS011;11327;52.334;9.506;2023-02-18T03:03:52;11.90;;;5.15;;
22318;SDS011;11327;52.334;9.506;2023-02-18T03:11:08;20.80;;;7.87;;
22318;SDS011;11327;52.334;9.506;2023-02-18T03:14:39;19.98;;;9.18;;
22318;SDS011;11327;52.334;9.506;2023-02-18T03:18:15;25.35;;;10.65;;
22318;SDS011;11327;52.334;9.506;2023-02-18T03:21:43;24.50;;;11.75;;
22318;SDS011;11327;52.334;9.506;2023-02-18T03:25:15;22.27;;;12.05;;
22318;SDS011;11327;52.334;9.506;2023-02-18T03:28:38;25.05;;;11.85;;
22318;SDS011;11327;52.334;9.506;2023-02-18T03:32:00;23.55;;;12.28;;
22318;SDS011;11327;52.334;9.506;2023-02-18T03:35:24;27.82;;;12.88;;
22318;SDS011;11327;52.334;9.506;2023-02-18T03:42:31;24.40;;;12.90;;
22318;SDS011;11327;52.334;9.506;2023-02-18T03:45:52;24.50;;;12.75;;
22318;SDS011;11327;52.334;9.506;2023-02-18T03:49:13;26.02;;;12.95;;
22318;SDS011;11327;52.334;9.506;2023-02-18T03:52:34;28.67;;;14.35;;
22318;SDS011;11327;52.334;9.506;2023-02-18T03:55:56;31.68;;;15.40;;
22318;SDS011;11327;52.334;9.506;2023-02-18T03:59:16;29.60;;;16.00;;
22318;SDS011;11327;52.334;9.506;2023-02-18T04:02:37;36.33;;;18.02;;
22318;SDS011;11327;52.334;9.506;2023-02-18T04:05:58;37.53;;;19.73;;
22318;SDS011;11327;52.334;9.506;2023-02-18T04:09:18;39.95;;;20.27;;
22318;SDS011;11327;52.334;9.506;2023-02-18T04:12:39;38.02;;;20.25;;
22318;SDS011;11327;52.334;9.506;2023-02-18T04:16:00;41.95;;;21.33;;
22318;SDS011;11327;52.334;9.506;2023-02-18T04:19:21;42.75;;;22.80;;
22318;SDS011;11327;52.334;9.506;2023-02-18T04:22:41;47.10;;;22.60;;
22318;SDS011;11327;52.334;9.506;2023-02-18T04:26:02;43.10;;;23.62;;
22318;SDS011;11327;52.334;9.506;2023-02-18T04:29:23;47.38;;;23.67;;
22318;SDS011;11327;52.334;9.506;2023-02-18T04:32:44;47.90;;;24.37;;
22318;SDS011;11327;52.334;9.506;2023-02-18T04:36:05;45.73;;;24.15;;
22318;SDS011;11327;52.334;9.506;2023-02-18T04:39:26;44.48;;;23.90;;
22318;SDS011;11327;52.334;9.506;2023-02-18T04:42:47;50.08;;;24.95;;
22318;SDS011;11327;52.334;9.506;2023-02-18T04:46:08;45.80;;;23.27;;
22318;SDS011;11327;52.334;9.506;2023-02-18T04:49:29;48.95;;;24.20;;
22318;SDS011;11327;52.334;9.506;2023-02-18T04:52:49;46.15;;;23.45;;
22318;SDS011;11327;52.334;9.506;2023-02-18T04:56:10;46.53;;;22.75;;
22318;SDS011;11327;52.334;9.506;2023-02-18T04:59:31;42.10;;;21.12;;
22318;SDS011;11327;52.334;9.506;2023-02-18T05:02:51;46.05;;;21.05;;
22318;SDS011;11327;52.334;9.506;2023-02-18T05:06:12;50.15;;;25.45;;
22318;SDS011;11327;52.334;9.506;2023-02-18T05:09:33;53.90;;;26.93;;
22318;SDS011;11327;52.334;9.506;2023-02-18T05:12:54;53.45;;;25.75;;
22318;SDS011;11327;52.334;9.506;2023-02-18T05:16:14;53.23;;;26.42;;
22318;SDS011;11327;52.334;9.506;2023-02-18T05:19:35;52.20;;;26.33;;
22318;SDS011;11327;52.334;9.506;2023-02-18T05:22:56;47.15;;;23.95;;
22318;SDS011;11327;52.334;9.506;2023-02-18T05:26:17;48.48;;;23.00;;
22318;SDS011;11327;52.334;9.506;2023-02-18T05:29:37;44.63;;;22.77;;
22318;SDS011;11327;52.334;9.506;2023-02-18T05:32:58;34.18;;;16.77;;
22318;SDS011;11327;52.334;9.506;2023-02-18T05:36:19;26.57;;;14.60;;
22318;SDS011;11327;52.334;9.506;2023-02-18T05:39:40;28.83;;;14.47;;
22318;SDS011;11327;52.334;9.506;2023-02-18T05:43:01;30.55;;;15.45;;
22318;SDS011;11327;52.334;9.506;2023-02-18T05:46:21;31.15;;;14.87;;
22318;SDS011;11327;52.334;9.506;2023-02-18T05:49:43;27.22;;;14.78;;
22318;SDS011;11327;52.334;9.506;2023-02-18T05:53:03;30.97;;;15.28;;
22318;SDS011;11327;52.334;9.506;2023-02-18T05:56:24;33.98;;;16.32;;
22318;SDS011;11327;52.334;9.506;2023-02-18T05:59:45;37.20;;;17.48;;
22318;SDS011;11327;52.334;9.506;2023-02-18T06:03:06;39.95;;;18.87;;
22318;SDS011;11327;52.334;9.506;2023-02-18T06:06:26;36.38;;;18.20;;
22318;SDS011;11327;52.334;9.506;2023-02-18T06:09:47;39.88;;;18.87;;
22318;SDS011;11327;52.334;9.506;2023-02-18T06:13:08;40.48;;;19.30;;
22318;SDS011;11327;52.334;9.506;2023-02-18T06:16:29;38.67;;;18.70;;
22318;SDS011;11327;52.334;9.506;2023-02-18T06:19:50;45.85;;;23.12;;
22318;SDS011;11327;52.334;9.506;2023-02-18T06:23:10;47.33;;;22.67;;
22318;SDS011;11327;52.334;9.506;2023-02-18T06:26:31;41.13;;;20.95;;
22318;SDS011;11327;52.334;9.506;2023-02-18T06:29:52;46.50;;;23.85;;
22318;SDS011;11327;52.334;9.506;2023-02-18T06:33:13;39.10;;;19.23;;
22318;SDS011;11327;52.334;9.506;2023-02-18T06:36:33;40.78;;;19.12;;
22318;SDS011;11327;52.334;9.506;2023-02-18T06:39:54;39.30;;;18.12;;
22318;SDS011;11327;52.334;9.506;2023-02-18T06:43:15;38.13;;;18.12;;
22318;SDS011;11327;52.334;9.506;2023-02-18T06:46:37;33.78;;;16.80;;
22318;SDS011;11327;52.334;9.506;2023-02-18T06:49:57;34.27;;;15.80;;
22318;SDS011;11327;52.334;9.506;2023-02-18T06:53:18;32.98;;;16.00;;
22318;SDS011;11327;52.334;9.506;2023-02-18T06:56:39;29.10;;;14.05;;
22318;SDS011;11327;52.334;9.506;2023-02-18T06:59:59;20.82;;;10.63;;
22318;SDS011;11327;52.334;9.506;2023-02-18T07:03:21;19.32;;;9.50;;
22318;SDS011;11327;52.334;9.506;2023-02-18T07:06:41;18.80;;;9.60;;
22318;SDS011;11327;52.334;9.506;2023-02-18T07:10:02;18.65;;;9.65;;
22318;SDS011;11327;52.334;9.506;2023-02-18T07:13:23;18.07;;;9.48;;
22318;SDS011;11327;52.334;9.506;2023-02-18T07:16:44;18.55;;;9.40;;
22318;SDS011;11327;52.334;9.506;2023-02-18T07:20:05;17.32;;;9.18;;
22318;SDS011;11327;52.334;9.506;2023-02-18T07:23:27;16.45;;;9.15;;
22318;SDS011;11327;52.334;9.506;2023-02-18T07:26:47;17.25;;;8.88;;
22318;SDS011;11327;52.334;9.506;2023-02-18T07:30:08;17.25;;;8.90;;
22318;SDS011;11327;52.334;9.506;2023-02-18T07:33:30;13.93;;;8.10;;
22318;SDS011;11327;52.334;9.506;2023-02-18T07:36:50;15.80;;;8.23;;
22318;SDS011;11327;52.334;9.506;2023-02-18T07:40:12;15.40;;;8.08;;
22318;SDS011;11327;52.334;9.506;2023-02-18T07:43:34;16.00;;;8.93;;
22318;SDS011;11327;52.334;9.506;2023-02-18T07:46:55;14.25;;;7.65;;
22318;SDS011;11327;52.334;9.506;2023-02-18T07:50:16;13.35;;;7.10;;
22318;SDS011;11327;52.334;9.506;2023-02-18T07:53:37;13.45;;;6.58;;
22318;SDS011;11327;52.334;9.506;2023-02-18T07:56:59;9.43;;;4.92;;
22318;SDS011;11327;52.334;9.506;2023-02-18T08:00:19;7.42;;;4.58;;
22318;SDS011;11327;52.334;9.506;2023-02-18T08:03:40;9.38;;;4.62;;
22318;SDS011;11327;52.334;9.506;2023-02-18T08:07:02;7.50;;;4.40;;
22318;SDS011;11327;52.334;9.506;2023-02-18T08:10:23;6.78;;;3.90;;
22318;SDS011;11327;52.334;9.506;2023-02-18T08:13:43;7.45;;;3.90;;
22318;SDS011;11327;52.334;9.506;2023-02-18T08:17:04;7.05;;;4.12;;
22318;SDS011;11327;52.334;9.506;2023-02-18T08:20:25;5.22;;;3.35;;
22318;SDS011;11327;52.334;9.506;2023-02-18T08:23:45;5.53;;;3.58;;
22318;SDS011;11327;52.334;9.506;2023-02-18T08:27:07;5.95;;;4.15;;
22318;SDS011;11327;52.334;9.506;2023-02-18T08:30:27;5.17;;;3.70;;
22318;SDS011;11327;52.334;9.506;2023-02-18T08:33:48;5.45;;;3.30;;
22318;SDS011;11327;52.334;9.506;2023-02-18T08:37:10;5.15;;;3.22;;
22318;SDS011;11327;52.334;9.506;2023-02-18T08:40:30;4.62;;;3.20;;
22318;SDS011;11327;52.334;9.506;2023-02-18T08:43:51;4.30;;;3.00;;
22318;SDS011;11327;52.334;9.506;2023-02-18T08:47:12;3.60;;;2.83;;
22318;SDS011;11327;52.334;9.506;2023-02-18T08:50:33;5.28;;;3.02;;
22318;SDS011;11327;52.334;9.506;2023-02-18T08:53:54;3.45;;;2.50;;
22318;SDS011;11327;52.334;9.506;2023-02-18T08:57:15;3.22;;;2.62;;
22318;SDS011;11327;52.334;9.506;2023-02-18T09:00:36;4.12;;;2.37;;
22318;SDS011;11327;52.334;9.506;2023-02-18T09:03:57;2.70;;;1.98;;
22318;SDS011;11327;52.334;9.506;2023-02-18T09:07:18;3.22;;;2.10;;
22318;SDS011;11327;52.334;9.506;2023-02-18T09:10:39;2.52;;;1.90;;
22318;SDS011;11327;52.334;9.506;2023-02-18T09:14:00;2.92;;;1.90;;
22318;SDS011;11327;52.334;9.506;2023-02-18T09:17:20;1.67;;;1.30;;
22318;SDS011;11327;52.334;9.506;2023-02-18T09:20:41;1.45;;;1.12;;
22318;SDS011;11327;52.334;9.506;2023-02-18T09:24:02;1.47;;;1.17;;
22318;SDS011;11327;52.334;9.506;2023-02-18T09:27:23;1.50;;;1.20;;
22318;SDS011;11327;52.334;9.506;2023-02-18T09:30:44;1.98;;;1.30;;
22318;SDS011;11327;52.334;9.506;2023-02-18T09:34:05;1.45;;;1.10;;
22318;SDS011;11327;52.334;9.506;2023-02-18T09:37:26;1.70;;;1.07;;
22318;SDS011;11327;52.334;9.506;2023-02-18T09:40:47;1.55;;;1.10;;
22318;SDS011;11327;52.334;9.506;2023-02-18T09:44:12;1.05;;;0.90;;
22318;SDS011;11327;52.334;9.506;2023-02-18T09:47:54;0.90;;;0.80;;
22318;SDS011;11327;52.334;9.506;2023-02-18T09:51:15;1.85;;;1.15;;
22318;SDS011;11327;52.334;9.506;2023-02-18T09:54:37;1.90;;;1.00;;
22318;SDS011;11327;52.334;9.506;2023-02-18T09:57:59;1.77;;;1.07;;
22318;SDS011;11327;52.334;9.506;2023-02-18T10:01:36;1.17;;;0.90;;
22318;SDS011;11327;52.334;9.506;2023-02-18T10:04:56;1.02;;;0.82;;
22318;SDS011;11327;52.334;9.506;2023-02-18T10:08:21;1.65;;;0.90;;
22318;SDS011;11327;52.334;9.506;2023-02-18T10:11:45;1.22;;;1.10;;
22318;SDS011;11327;52.334;9.506;2023-02-18T10:15:15;1.40;;;1.10;;
22318;SDS011;11327;52.334;9.506;2023-02-18T10:18:40;1.30;;;1.15;;
22318;SDS011;11327;52.334;9.506;2023-02-18T10:22:05;2.00;;;1.30;;
22318;SDS011;11327;52.334;9.506;2023-02-18T10:25:27;1.87;;;1.50;;
22318;SDS011;11327;52.334;9.506;2023-02-18T10:28:50;1.20;;;1.10;;
22318;SDS011;11327;52.334;9.506;2023-02-18T10:32:16;1.20;;;0.90;;
22318;SDS011;11327;52.334;9.506;2023-02-18T10:35:48;1.27;;;0.93;;
22318;SDS011;11327;52.334;9.506;2023-02-18T10:39:29;2.40;;;0.88;;
22318;SDS011;11327;52.334;9.506;2023-02-18T10:43:01;1.47;;;1.00;;
22318;SDS011;11327;52.334;9.506;2023-02-18T10:50:31;0.68;;;0.57;;
22318;SDS011;11327;52.334;9.506;2023-02-18T10:53:56;0.80;;;0.70;;
22318;SDS011;11327;52.334;9.506;2023-02-18T10:57:21;0.90;;;0.70;;
22318;SDS011;11327;52.334;9.506;2023-02-18T11:00:43;1.12;;;0.80;;
22318;SDS011;11327;52.334;9.506;2023-02-18T11:04:17;0.90;;;0.65;;
22318;SDS011;11327;52.334;9.506;2023-02-18T11:07:39;1.15;;;0.60;;
22318;SDS011;11327;52.334;9.506;2023-02-18T11:14:38;1.10;;;0.50;;
22318;SDS011;11327;52.334;9.506;2023-02-18T11:18:31;1.10;;;0.80;;
22318;SDS011;11327;52.334;9.506;2023-02-18T11:21:47;1.22;;;0.80;;
22318;SDS011;11327;52.334;9.506;2023-02-18T11:28:45;1.12;;;0.70;;
22318;SDS011;11327;52.334;9.506;2023-02-18T11:32:09;1.72;;;1.10;;
22318;SDS011;11327;52.334;9.506;2023-02-18T11:35:31;2.30;;;0.95;;
22318;SDS011;11327;52.334;9.506;2023-02-18T11:38:58;2.85;;;1.37;;
22318;SDS011;11327;52.334;9.506;2023-02-18T11:42:23;2.30;;;1.70;;
22318;SDS011;11327;52.334;9.506;2023-02-18T11:45:46;2.35;;;1.62;;
22318;SDS011;11327;52.334;9.506;2023-02-18T11:49:18;1.90;;;1.60;;
22318;SDS011;11327;52.334;9.506;2023-02-18T11:52:44;3.60;;;1.60;;
22318;SDS011;11327;52.334;9.506;2023-02-18T11:56:15;1.57;;;1.10;;
22318;SDS011;11327;52.334;9.506;2023-02-18T11:59:39;1.70;;;1.25;;
22318;SDS011;11327;52.334;9.506;2023-02-18T12:03:02;1.50;;;1.20;;
22318;SDS011;11327;52.334;9.506;2023-02-18T12:10:02;1.30;;;1.20;;
22318;SDS011;11327;52.334;9.506;2023-02-18T12:13:27;2.10;;;1.40;;
22318;SDS011;11327;52.334;9.506;2023-02-18T12:24:43;1.82;;;1.32;;
22318;SDS011;11327;52.334;9.506;2023-02-18T12:42:53;3.95;;;1.80;;
22318;SDS011;11327;52.334;9.506;2023-02-18T13:12:17;3.02;;;1.75;;
22318;SDS011;11327;52.334;9.506;2023-02-18T13:15:43;2.90;;;1.80;;
22318;SDS011;11327;52.334;9.506;2023-02-18T13:22:55;2.08;;;1.70;;
22318;SDS011;11327;52.334;9.506;2023-02-18T13:26:16;2.37;;;1.57;;
22318;SDS011;11327;52.334;9.506;2023-02-18T13:29:42;2.77;;;1.70;;
22318;SDS011;11327;52.334;9.506;2023-02-18T13:33:12;2.55;;;1.90;;
22318;SDS011;11327;52.334;9.506;2023-02-18T13:40:09;3.02;;;2.30;;
22318;SDS011;11327;52.334;9.506;2023-02-18T13:43:31;3.05;;;2.00;;
22318;SDS011;11327;52.334;9.506;2023-02-18T13:46:57;3.47;;;2.10;;
22318;SDS011;11327;52.334;9.506;2023-02-18T13:53:49;4.40;;;2.50;;
22318;SDS011;11327;52.334;9.506;2023-02-18T13:57:15;3.37;;;2.45;;
22318;SDS011;11327;52.334;9.506;2023-02-18T14:00:39;3.77;;;2.80;;
22318;SDS011;11327;52.334;9.506;2023-02-18T14:04:02;6.72;;;3.55;;
22318;SDS011;11327;52.334;9.506;2023-02-18T14:14:36;4.65;;;2.87;;
22318;SDS011;11327;52.334;9.506;2023-02-18T14:21:39;5.50;;;3.30;;
22318;SDS011;11327;52.334;9.506;2023-02-18T14:25:03;4.92;;;2.80;;
22318;SDS011;11327;52.334;9.506;2023-02-18T14:32:02;5.95;;;3.12;;
22318;SDS011;11327;52.334;9.506;2023-02-18T14:39:30;7.70;;;3.58;;
22318;SDS011;11327;52.334;9.506;2023-02-18T14:43:15;6.03;;;3.15;;
22318;SDS011;11327;52.334;9.506;2023-02-18T14:50:11;5.05;;;3.20;;
22318;SDS011;11327;52.334;9.506;2023-02-18T14:53:33;7.33;;;3.37;;
22318;SDS011;11327;52.334;9.506;2023-02-18T14:56:58;6.17;;;3.60;;
22318;SDS011;11327;52.334;9.506;2023-02-18T15:00:22;6.53;;;3.83;;
22318;SDS011;11327;52.334;9.506;2023-02-18T15:03:45;6.37;;;3.95;;
22318;SDS011;11327;52.334;9.506;2023-02-18T15:07:08;6.33;;;3.87;;
22318;SDS011;11327;52.334;9.506;2023-02-18T15:10:33;6.35;;;3.92;;
22318;SDS011;11327;52.334;9.506;2023-02-18T15:14:08;8.03;;;4.17;;
22318;SDS011;11327;52.334;9.506;2023-02-18T15:17:31;8.03;;;4.58;;
22318;SDS011;11327;52.334;9.506;2023-02-18T15:20:52;9.65;;;4.67;;
22318;SDS011;11327;52.334;9.506;2023-02-18T15:24:24;7.35;;;5.05;;
22318;SDS011;11327;52.334;9.506;2023-02-18T15:27:40;7.60;;;4.80;;
22318;SDS011;11327;52.334;9.506;2023-02-18T15:31:08;11.60;;;5.90;;
22318;SDS011;11327;52.334;9.506;2023-02-18T15:37:57;7.90;;;4.60;;
22318;SDS011;11327;52.334;9.506;2023-02-18T15:41:19;12.13;;;5.25;;
22318;SDS011;11327;52.334;9.506;2023-02-18T15:44:46;9.35;;;4.72;;
22318;SDS011;11327;52.334;9.506;2023-02-18T15:51:53;11.00;;;5.42;;
22318;SDS011;11327;52.334;9.506;2023-02-18T15:55:21;10.88;;;5.60;;
22318;SDS011;11327;52.334;9.506;2023-02-18T15:59:15;11.10;;;5.40;;
22318;SDS011;11327;52.334;9.506;2023-02-18T16:02:32;9.37;;;5.87;;
22318;SDS011;11327;52.334;9.506;2023-02-18T16:06:07;10.95;;;5.28;;
22318;SDS011;11327;52.334;9.506;2023-02-18T16:09:45;10.38;;;4.87;;
22318;SDS011;11327;52.334;9.506;2023-02-18T16:13:05;7.60;;;4.85;;
22318;SDS011;11327;52.334;9.506;2023-02-18T16:16:27;12.70;;;5.40;;
22318;SDS011;11327;52.334;9.506;2023-02-18T16:19:56;7.58;;;4.58;;
22318;SDS011;11327;52.334;9.506;2023-02-18T16:23:17;10.65;;;4.65;;
22318;SDS011;11327;52.334;9.506;2023-02-18T16:26:41;9.45;;;5.22;;
22318;SDS011;11327;52.334;9.506;2023-02-18T16:30:14;9.30;;;4.60;;
22318;SDS011;11327;52.334;9.506;2023-02-18T16:33:37;9.98;;;4.87;;
22318;SDS011;11327;52.334;9.506;2023-02-18T16:36:58;9.68;;;4.40;;
22318;SDS011;11327;52.334;9.506;2023-02-18T16:40:37;9.80;;;4.30;;
22318;SDS011;11327;52.334;9.506;2023-02-18T16:43:59;7.50;;;4.00;;
22318;SDS011;11327;52.334;9.506;2023-02-18T16:47:21;11.08;;;4.03;;
22318;SDS011;11327;52.334;9.506;2023-02-18T16:50:41;7.75;;;3.50;;
22318;SDS011;11327;52.334;9.506;2023-02-18T16:54:02;8.23;;;3.60;;
22318;SDS011;11327;52.334;9.506;2023-02-18T16:57:23;7.20;;;3.77;;
22318;SDS011;11327;52.334;9.506;2023-02-18T17:00:44;8.53;;;4.40;;
22318;SDS011;11327;52.334;9.506;2023-02-18T17:04:06;9.40;;;3.90;;
22318;SDS011;11327;52.334;9.506;2023-02-18T17:07:29;9.90;;;4.12;;
22318;SDS011;11327;52.334;9.506;2023-02-18T17:10:53;11.73;;;3.72;;
22318;SDS011;11327;52.334;9.506;2023-02-18T17:14:16;10.25;;;3.58;;
22318;SDS011;11327;52.334;9.506;2023-02-18T17:17:38;9.30;;;3.80;;
22318;SDS011;11327;52.334;9.506;2023-02-18T17:20:59;13.22;;;3.95;;
22318;SDS011;11327;52.334;9.506;2023-02-18T17:24:19;10.23;;;4.37;;
22318;SDS011;11327;52.334;9.506;2023-02-18T17:27:40;9.43;;;4.50;;
22318;SDS011;11327;52.334;9.506;2023-02-18T17:31:01;11.18;;;5.33;;
22318;SDS011;11327;52.334;9.506;2023-02-18T17:34:26;9.55;;;4.62;;
22318;SDS011;11327;52.334;9.506;2023-02-18T17:37:48;10.50;;;3.65;;
22318;SDS011;11327;52.334;9.506;2023-02-18T17:41:10;8.58;;;3.47;;
22318;SDS011;11327;52.334;9.506;2023-02-18T17:44:33;8.85;;;3.17;;
22318;SDS011;11327;52.334;9.506;2023-02-18T17:48:00;5.50;;;3.17;;
22318;SDS011;11327;52.334;9.506;2023-02-18T17:51:23;8.15;;;3.12;;
22318;SDS011;11327;52.334;9.506;2023-02-18T17:54:45;11.45;;;3.98;;
22318;SDS011;11327;52.334;9.506;2023-02-18T17:58:06;8.53;;;4.10;;
22318;SDS011;11327;52.334;9.506;2023-02-18T18:01:26;7.80;;;3.72;;
22318;SDS011;11327;52.334;9.506;2023-02-18T18:04:47;9.25;;;3.67;;
22318;SDS011;11327;52.334;9.506;2023-02-18T18:08:08;9.55;;;4.17;;
22318;SDS011;11327;52.334;9.506;2023-02-18T18:11:28;8.38;;;3.70;;
22318;SDS011;11327;52.334;9.506;2023-02-18T18:14:49;5.45;;;2.55;;
22318;SDS011;11327;52.334;9.506;2023-02-18T18:18:10;5.87;;;3.05;;
22318;SDS011;11327;52.334;9.506;2023-02-18T18:21:32;7.25;;;3.00;;
22318;SDS011;11327;52.334;9.506;2023-02-18T18:24:54;9.00;;;3.30;;
22318;SDS011;11327;52.334;9.506;2023-02-18T18:28:15;7.50;;;3.00;;
22318;SDS011;11327;52.334;9.506;2023-02-18T18:31:36;10.13;;;3.90;;
22318;SDS011;11327;52.334;9.506;2023-02-18T18:34:57;8.33;;;2.92;;
22318;SDS011;11327;52.334;9.506;2023-02-18T18:38:18;7.83;;;3.20;;
22318;SDS011;11327;52.334;9.506;2023-02-18T18:41:39;8.95;;;3.20;;
22318;SDS011;11327;52.334;9.506;2023-02-18T18:45:00;6.58;;;2.80;;
22318;SDS011;11327;52.334;9.506;2023-02-18T18:48:20;8.90;;;3.37;;
22318;SDS011;11327;52.334;9.506;2023-02-18T18:51:42;10.28;;;3.50;;
22318;SDS011;11327;52.334;9.506;2023-02-18T18:55:03;8.83;;;3.77;;
22318;SDS011;11327;52.334;9.506;2023-02-18T18:58:25;6.30;;;2.90;;
22318;SDS011;11327;52.334;9.506;2023-02-18T19:01:46;8.55;;;3.40;;
22318;SDS011;11327;52.334;9.506;2023-02-18T19:05:15;9.05;;;3.20;;
22318;SDS011;11327;52.334;9.506;2023-02-18T19:08:43;10.57;;;3.90;;
22318;SDS011;11327;52.334;9.506;2023-02-18T19:12:05;15.93;;;6.00;;
22318;SDS011;11327;52.334;9.506;2023-02-18T19:15:27;12.88;;;4.75;;
22318;SDS011;11327;52.334;9.506;2023-02-18T19:18:48;10.30;;;3.72;;
22318;SDS011;11327;52.334;9.506;2023-02-18T19:22:09;6.83;;;3.50;;
22318;SDS011;11327;52.334;9.506;2023-02-18T19:25:30;8.63;;;3.40;;
22318;SDS011;11327;52.334;9.506;2023-02-18T19:28:51;8.78;;;3.58;;
22318;SDS011;11327;52.334;9.506;2023-02-18T19:32:12;9.35;;;3.50;;
22318;SDS011;11327;52.334;9.506;2023-02-18T19:35:32;7.17;;;3.10;;
22318;SDS011;11327;52.334;9.506;2023-02-18T19:38:54;7.85;;;3.02;;
22318;SDS011;11327;52.334;9.506;2023-02-18T19:42:15;7.00;;;2.77;;
22318;SDS011;11327;52.334;9.506;2023-02-18T19:45:38;7.15;;;2.45;;
22318;SDS011;11327;52.334;9.506;2023-02-18T19:49:02;5.40;;;2.67;;
22318;SDS011;11327;52.334;9.506;2023-02-18T19:52:23;8.85;;;2.98;;
22318;SDS011;11327;52.334;9.506;2023-02-18T19:55:43;9.08;;;3.47;;
22318;SDS011;11327;52.334;9.506;2023-02-18T19:59:04;7.83;;;3.67;;
22318;SDS011;11327;52.334;9.506;2023-02-18T20:02:25;9.38;;;3.05;;
22318;SDS011;11327;52.334;9.506;2023-02-18T20:05:46;10.20;;;3.52;;
22318;SDS011;11327;52.334;9.506;2023-02-18T20:09:07;8.20;;;3.77;;
22318;SDS011;11327;52.334;9.506;2023-02-18T20:12:27;8.43;;;3.27;;
22318;SDS011;11327;52.334;9.506;2023-02-18T20:15:48;7.70;;;3.25;;
22318;SDS011;11327;52.334;9.506;2023-02-18T20:19:09;7.92;;;3.10;;
22318;SDS011;11327;52.334;9.506;2023-02-18T20:22:29;8.63;;;3.58;;
22318;SDS011;11327;52.334;9.506;2023-02-18T20:25:50;12.30;;;3.87;;
22318;SDS011;11327;52.334;9.506;2023-02-18T20:29:11;8.55;;;3.20;;
22318;SDS011;11327;52.334;9.506;2023-02-18T20:32:35;8.78;;;3.60;;
22318;SDS011;11327;52.334;9.506;2023-02-18T20:35:56;14.03;;;5.67;;
22318;SDS011;11327;52.334;9.506;2023-02-18T20:39:18;9.65;;;4.25;;
22318;SDS011;11327;52.334;9.506;2023-02-18T20:42:39;12.25;;;3.80;;
22318;SDS011;11327;52.334;9.506;2023-02-18T20:46:05;12.80;;;3.62;;
22318;SDS011;11327;52.334;9.506;2023-02-18T20:49:28;10.70;;;3.45;;
22318;SDS011;11327;52.334;9.506;2023-02-18T20:52:49;10.32;;;3.30;;
22318;SDS011;11327;52.334;9.506;2023-02-18T20:56:09;9.65;;;3.67;;
22318;SDS011;11327;52.334;9.506;2023-02-18T20:59:31;10.80;;;4.05;;
22318;SDS011;11327;52.334;9.506;2023-02-18T21:02:54;12.75;;;4.37;;
22318;SDS011;11327;52.334;9.506;2023-02-18T21:06:16;16.30;;;4.53;;
22318;SDS011;11327;52.334;9.506;2023-02-18T21:09:39;11.12;;;3.70;;
22318;SDS011;11327;52.334;9.506;2023-02-18T21:16:36;10.70;;;3.50;;
22318;SDS011;11327;52.334;9.506;2023-02-18T21:20:19;9.80;;;3.70;;
22318;SDS011;11327;52.334;9.506;2023-02-18T21:23:28;10.32;;;3.72;;
22318;SDS011;11327;52.334;9.506;2023-02-18T21:26:49;10.18;;;3.60;;
22318;SDS011;11327;52.334;9.506;2023-02-18T21:30:10;10.18;;;3.67;;
22318;SDS011;11327;52.334;9.506;2023-02-18T21:33:31;12.80;;;4.17;;
22318;SDS011;11327;52.334;9.506;2023-02-18T21:36:52;9.43;;;4.00;;
22318;SDS011;11327;52.334;9.506;2023-02-18T21:40:12;12.45;;;4.03;;
22318;SDS011;11327;52.334;9.506;2023-02-18T21:43:33;12.10;;;4.05;;
22318;SDS011;11327;52.334;9.506;2023-02-18T21:46:54;9.70;;;4.00;;
22318;SDS011;11327;52.334;9.506;2023-02-18T21:50:14;13.65;;;4.50;;
22318;SDS011;11327;52.334;9.506;2023-02-18T21:53:35;12.45;;;4.65;;
22318;SDS011;11327;52.334;9.506;2023-02-18T21:56:56;11.95;;;4.42;;
22318;SDS011;11327;52.334;9.506;2023-02-18T22:00:19;12.88;;;4.45;;
22318;SDS011;11327;52.334;9.506;2023-02-18T22:03:41;12.73;;;4.50;;
22318;SDS011;11327;52.334;9.506;2023-02-18T22:07:03;11.73;;;4.30;;
22318;SDS011;11327;52.334;9.506;2023-02-18T22:10:23;11.18;;;4.42;;
22318;SDS011;11327;52.334;9.506;2023-02-18T22:13:44;11.78;;;4.75;;
22318;SDS011;11327;52.334;9.506;2023-02-18T22:17:05;11.88;;;5.28;;
22318;SDS011;11327;52.334;9.506;2023-02-18T22:20:26;13.55;;;5.15;;
22318;SDS011;11327;52.334;9.506;2023-02-18T22:23:47;8.40;;;4.80;;
22318;SDS011;11327;52.334;9.506;2023-02-18T22:27:07;13.98;;;6.12;;
22318;SDS011;11327;52.334;9.506;2023-02-18T22:30:28;11.78;;;5.70;;